createdAt,value
2023-04-04T00:02:19.276Z,15.15
2023-04-04T00:05:22.847Z,14.45
2023-04-04T00:08:27.441Z,11.90
2023-04-04T00:11:30.807Z,13.68
2023-04-04T00:14:36.317Z,13.43
2023-04-04T00:17:39.594Z,14.15
2023-04-04T00:20:43.335Z,12.85
2023-04-04T00:23:48.167Z,13.00
2023-04-04T00:26:51.326Z,14.80
2023-04-04T00:29:54.721Z,12.73
2023-04-04T00:32:58.202Z,14.60
2023-04-04T00:36:01.535Z,13.25
2023-04-04T00:39:06.276Z,11.18
2023-04-04T00:42:09.765Z,11.50
2023-04-04T00:45:13.352Z,14.00
2023-04-04T00:48:17.369Z,13.55
2023-04-04T00:51:20.726Z,13.77
2023-04-04T00:54:25.434Z,16.38
2023-04-04T00:57:29.884Z,15.02
2023-04-04T01:00:35.903Z,14.43
2023-04-04T01:03:39.709Z,13.80
2023-04-04T01:06:43.019Z,13.10
2023-04-04T01:09:48.205Z,13.73
2023-04-04T01:12:51.909Z,14.80
2023-04-04T01:15:55.381Z,16.00
2023-04-04T01:18:59.103Z,13.15
2023-04-04T01:22:03.894Z,16.58
2023-04-04T01:25:09.935Z,13.20
2023-04-04T01:28:17.541Z,17.55
2023-04-04T01:31:27.384Z,14.00
2023-04-04T01:34:38.136Z,16.10
2023-04-04T01:37:46.945Z,19.05
2023-04-04T01:40:56.327Z,16.95
2023-04-04T01:44:01.572Z,20.27
2023-04-04T01:47:08.626Z,17.52
2023-04-04T01:50:13.919Z,16.63
2023-04-04T01:53:17.286Z,16.33
2023-04-04T01:56:20.464Z,16.27
2023-04-04T01:59:25.402Z,15.82
2023-04-04T02:02:28.777Z,17.75
2023-04-04T02:05:32.325Z,15.65
2023-04-04T02:08:35.609Z,17.73
2023-04-04T02:11:40.485Z,16.08
2023-04-04T02:14:45.325Z,19.23
2023-04-04T02:17:49.610Z,14.73
2023-04-04T02:20:57.725Z,16.38
2023-04-04T02:24:01.321Z,17.30
2023-04-04T02:27:05.085Z,17.58
2023-04-04T02:30:12.673Z,18.95
2023-04-04T02:33:16.351Z,14.95
2023-04-04T02:36:20.399Z,15.05
2023-04-04T02:39:26.127Z,18.33
2023-04-04T02:42:29.513Z,17.27
2023-04-04T02:45:37.097Z,17.98
2023-04-04T02:49:15.830Z,17.10
2023-04-04T02:52:24.095Z,22.98
2023-04-04T02:55:27.676Z,21.13
2023-04-04T02:58:32.356Z,21.55
2023-04-04T03:01:37.897Z,22.77
2023-04-04T03:04:41.386Z,18.27
2023-04-04T03:07:44.624Z,17.98
2023-04-04T03:10:48.215Z,16.80
2023-04-04T03:13:52.399Z,22.95
2023-04-04T03:17:02.612Z,16.55
2023-04-04T03:20:07.091Z,17.00
2023-04-04T03:23:10.848Z,17.80
2023-04-04T03:26:15.350Z,19.20
2023-04-04T03:29:18.752Z,17.52
2023-04-04T03:32:24.017Z,18.50
2023-04-04T03:35:27.402Z,18.27
2023-04-04T03:38:31.057Z,23.85
2023-04-04T03:41:34.398Z,25.98
2023-04-04T03:44:40.685Z,21.73
2023-04-04T03:47:46.236Z,19.70
2023-04-04T03:50:49.627Z,19.02
2023-04-04T03:53:52.969Z,17.67
2023-04-04T03:56:57.122Z,20.15
2023-04-04T04:00:00.775Z,19.45
2023-04-04T04:03:05.722Z,17.70
2023-04-04T04:06:09.291Z,20.33
2023-04-04T04:09:13.303Z,16.48
2023-04-04T04:12:16.658Z,17.35
2023-04-04T04:15:20.659Z,17.88
2023-04-04T04:18:25.456Z,17.90
2023-04-04T04:21:30.882Z,26.13
2023-04-04T04:24:34.283Z,20.58
2023-04-04T04:27:40.373Z,26.92
2023-04-04T04:30:45.440Z,28.02
2023-04-04T04:33:52.253Z,31.70
2023-04-04T04:36:59.411Z,37.17
2023-04-04T04:40:09.310Z,31.90
2023-04-04T04:43:23.459Z,20.60
2023-04-04T04:46:27.971Z,24.83
2023-04-04T04:49:33.138Z,25.08
2023-04-04T04:52:39.847Z,21.02
2023-04-04T04:55:43.814Z,20.52
2023-04-04T04:58:48.929Z,16.23
2023-04-04T05:01:58.717Z,19.02
2023-04-04T05:05:04.955Z,24.98
2023-04-04T05:08:10.058Z,26.83
2023-04-04T05:11:19.130Z,21.02
2023-04-04T05:14:23.594Z,26.35
2023-04-04T05:17:31.909Z,20.25
2023-04-04T05:20:42.429Z,19.77
2023-04-04T05:23:49.686Z,17.63
2023-04-04T05:26:57.617Z,18.50
2023-04-04T05:30:01.203Z,18.08
2023-04-04T05:33:14.993Z,22.08
2023-04-04T05:36:26.058Z,16.35
2023-04-04T05:39:34.579Z,21.90
2023-04-04T05:42:43.905Z,20.60
2023-04-04T05:45:48.799Z,21.13
2023-04-04T05:48:52.773Z,23.23
2023-04-04T05:51:58.191Z,24.05
2023-04-04T05:55:02.468Z,18.73
2023-04-04T05:58:08.802Z,19.38
2023-04-04T06:01:22.857Z,25.15
2023-04-04T06:04:29.200Z,17.15
2023-04-04T06:07:36.574Z,18.45
2023-04-04T06:10:40.059Z,16.13
2023-04-04T06:13:43.831Z,20.17
2023-04-04T06:16:52.142Z,20.10
2023-04-04T06:19:55.560Z,20.85
2023-04-04T06:23:04.187Z,23.02
2023-04-04T06:26:09.398Z,16.77
2023-04-04T06:29:15.549Z,17.23
2023-04-04T06:32:21.761Z,17.75
2023-04-04T06:35:25.465Z,20.00
2023-04-04T06:38:37.011Z,16.08
2023-04-04T06:41:47.995Z,15.43
2023-04-04T06:44:51.863Z,15.77
2023-04-04T06:47:56.132Z,17.70
2023-04-04T06:50:59.601Z,18.55
2023-04-04T06:54:05.400Z,18.02
2023-04-04T06:57:08.839Z,13.32
2023-04-04T07:00:14.114Z,14.68
2023-04-04T07:03:17.756Z,19.10
2023-04-04T07:06:25.810Z,21.45
2023-04-04T07:09:30.963Z,19.20
2023-04-04T07:12:34.432Z,21.60
2023-04-04T07:15:37.771Z,18.33
2023-04-04T07:18:41.355Z,13.82
2023-04-04T07:21:44.850Z,18.42
2023-04-04T07:24:49.588Z,19.13
2023-04-04T07:28:02.288Z,18.45
2023-04-04T07:31:15.091Z,18.25
2023-04-04T07:34:20.081Z,15.07
2023-04-04T07:37:23.642Z,15.77
2023-04-04T07:40:28.529Z,18.17
2023-04-04T07:43:32.017Z,14.95
2023-04-04T07:46:35.593Z,21.08
2023-04-04T07:49:39.124Z,18.23
2023-04-04T07:52:42.825Z,11.48
2023-04-04T07:55:47.632Z,18.83
2023-04-04T07:58:51.253Z,20.15
2023-04-04T08:01:54.837Z,42.70
2023-04-04T08:04:58.132Z,14.18
2023-04-04T08:08:01.412Z,14.75
2023-04-04T08:11:06.230Z,12.95
2023-04-04T08:14:11.948Z,11.60
2023-04-04T08:17:18.891Z,21.17
2023-04-04T08:20:22.321Z,16.35
2023-04-04T08:23:25.789Z,10.25
2023-04-04T08:26:30.655Z,23.65
2023-04-04T08:29:34.414Z,16.15
2023-04-04T08:32:37.988Z,15.95
2023-04-04T08:35:41.509Z,9.25
2023-04-04T08:38:44.823Z,10.52
2023-04-04T08:41:55.701Z,12.07
2023-04-04T08:45:02.648Z,12.43
2023-04-04T08:48:07.731Z,10.50
2023-04-04T08:51:13.394Z,12.30
2023-04-04T08:54:19.402Z,11.38
2023-04-04T08:57:27.391Z,9.98
2023-04-04T09:00:30.803Z,9.10
2023-04-04T09:03:36.865Z,8.55
2023-04-04T09:06:41.343Z,8.90
2023-04-04T09:09:46.926Z,7.65
2023-04-04T09:12:53.762Z,10.57
2023-04-04T09:16:00.102Z,10.73
2023-04-04T09:19:03.574Z,12.27
2023-04-04T09:22:09.361Z,14.27
2023-04-04T09:25:13.835Z,8.52
2023-04-04T09:28:18.547Z,10.27
2023-04-04T09:31:21.867Z,10.30
2023-04-04T09:34:25.099Z,8.02
2023-04-04T09:37:28.999Z,9.68
2023-04-04T09:40:32.599Z,8.32
2023-04-04T09:43:38.547Z,9.68
2023-04-04T09:46:41.903Z,8.88
2023-04-04T09:49:45.851Z,8.85
2023-04-04T09:52:50.301Z,10.18
2023-04-04T09:55:54.609Z,9.00
2023-04-04T09:59:04.279Z,7.35
2023-04-04T10:02:11.290Z,12.18
2023-04-04T10:05:14.815Z,9.88
2023-04-04T10:08:19.404Z,13.27
2023-04-04T10:11:31.018Z,14.40
2023-04-04T10:14:37.575Z,10.20
2023-04-04T10:17:42.440Z,18.70
2023-04-04T10:20:46.032Z,5.47
2023-04-04T10:23:50.607Z,5.57
2023-04-04T10:26:56.374Z,7.32
2023-04-04T10:30:01.765Z,9.43
2023-04-04T10:33:08.953Z,7.18
2023-04-04T10:36:15.876Z,10.50
2023-04-04T10:39:26.193Z,9.02
2023-04-04T10:42:34.503Z,8.02
2023-04-04T10:45:43.379Z,6.22
2023-04-04T10:48:48.592Z,12.20
2023-04-04T10:51:56.958Z,6.40
2023-04-04T10:55:06.425Z,7.45
2023-04-04T10:58:11.022Z,6.70
2023-04-04T11:01:21.516Z,6.10
2023-04-04T11:04:33.782Z,7.35
2023-04-04T11:07:40.452Z,9.18
2023-04-04T11:10:45.468Z,8.75
2023-04-04T11:14:01.774Z,7.85
2023-04-04T11:17:09.960Z,6.63
2023-04-04T11:20:17.801Z,6.97
2023-04-04T11:23:22.965Z,8.75
2023-04-04T11:26:37.503Z,8.75
2023-04-04T11:29:54.154Z,9.10
2023-04-04T11:33:06.980Z,7.00
2023-04-04T11:36:24.884Z,11.70
2023-04-04T11:39:30.573Z,9.70
2023-04-04T11:42:39.676Z,6.82
2023-04-04T11:45:46.060Z,9.25
2023-04-04T11:48:51.750Z,9.55
2023-04-04T11:51:57.460Z,10.70
2023-04-04T11:55:01.109Z,11.15
2023-04-04T11:58:12.642Z,8.55
2023-04-04T12:01:17.212Z,7.53
2023-04-04T12:04:23.538Z,7.35
2023-04-04T12:07:27.645Z,9.93
2023-04-04T12:10:33.550Z,9.95
2023-04-04T12:13:44.793Z,9.90
2023-04-04T12:16:50.701Z,37.08
2023-04-04T12:19:55.436Z,11.50
2023-04-04T12:22:59.054Z,10.80
2023-04-04T12:26:04.187Z,7.93
2023-04-04T12:29:07.769Z,7.60
2023-04-04T12:32:13.774Z,13.98
2023-04-04T12:35:19.234Z,8.98
2023-04-04T12:38:22.794Z,5.63
2023-04-04T12:41:27.712Z,10.13
2023-04-04T12:44:32.990Z,7.88
2023-04-04T12:47:38.788Z,11.35
2023-04-04T12:50:55.034Z,9.32
2023-04-04T12:53:59.745Z,8.85
2023-04-04T12:57:05.700Z,6.57
2023-04-04T13:00:10.203Z,5.53
2023-04-04T13:03:14.590Z,6.32
2023-04-04T13:06:19.920Z,8.52
2023-04-04T13:09:24.755Z,12.02
2023-04-04T13:12:28.884Z,10.15
2023-04-04T13:15:51.474Z,6.47
2023-04-04T13:18:54.826Z,5.72
2023-04-04T13:21:59.928Z,9.90
2023-04-04T13:25:03.525Z,8.40
2023-04-04T13:28:11.551Z,11.07
2023-04-04T13:31:16.039Z,9.35
2023-04-04T13:34:19.807Z,12.80
2023-04-04T13:37:25.004Z,23.35
2023-04-04T13:40:28.718Z,24.67
2023-04-04T13:43:32.253Z,20.88
2023-04-04T13:46:35.653Z,17.63
2023-04-04T13:49:39.159Z,23.15
2023-04-04T13:52:43.952Z,21.65
2023-04-04T13:56:13.272Z,10.88
2023-04-04T13:59:11.835Z,13.23
2023-04-04T14:02:15.930Z,12.07
2023-04-04T14:05:19.917Z,10.32
2023-04-04T14:08:27.343Z,11.00
2023-04-04T14:11:31.379Z,21.58
2023-04-04T14:14:36.713Z,55.67
2023-04-04T14:17:41.968Z,21.17
2023-04-04T14:20:45.534Z,21.05
2023-04-04T14:23:50.330Z,28.55
2023-04-04T14:26:53.758Z,12.73
2023-04-04T14:29:57.102Z,18.15
2023-04-04T14:33:00.530Z,17.40
2023-04-04T14:36:04.526Z,15.15
2023-04-04T14:39:09.483Z,14.52
2023-04-04T14:42:13.027Z,8.73
2023-04-04T14:45:18.322Z,9.30
2023-04-04T14:48:23.445Z,10.68
2023-04-04T14:51:28.461Z,7.53
2023-04-04T14:54:33.359Z,18.75
2023-04-04T14:57:51.957Z,21.08
2023-04-04T15:01:02.730Z,14.85
2023-04-04T15:04:07.205Z,11.73
2023-04-04T15:07:10.575Z,12.57
2023-04-04T15:10:15.447Z,17.20
2023-04-04T15:13:18.984Z,20.52
2023-04-04T15:16:22.492Z,14.38
2023-04-04T15:19:26.486Z,10.10
2023-04-04T15:22:29.940Z,7.78
2023-04-04T15:25:34.892Z,10.50
2023-04-04T15:28:38.376Z,7.43
2023-04-04T15:31:41.782Z,12.85
2023-04-04T15:34:45.113Z,11.65
2023-04-04T15:37:50.117Z,14.63
2023-04-04T15:40:55.040Z,16.92
2023-04-04T15:43:58.700Z,14.13
2023-04-04T15:47:02.366Z,9.75
2023-04-04T15:50:07.003Z,11.63
2023-04-04T15:53:10.432Z,9.63
2023-04-04T15:56:15.777Z,8.07
2023-04-04T15:59:19.179Z,9.70
2023-04-04T16:02:22.564Z,11.00
2023-04-04T16:05:27.387Z,14.60
2023-04-04T16:08:31.290Z,22.27
2023-04-04T16:11:36.133Z,38.60
2023-04-04T16:14:40.335Z,30.05
2023-04-04T16:17:44.265Z,25.52
2023-04-04T16:20:47.693Z,17.98
2023-04-04T16:23:51.124Z,20.48
2023-04-04T16:26:56.251Z,18.60
2023-04-04T16:29:59.742Z,20.67
2023-04-04T16:33:03.224Z,16.58
2023-04-04T16:36:07.286Z,19.58
2023-04-04T16:39:11.461Z,25.77
2023-04-04T16:42:19.351Z,13.55
2023-04-04T16:45:22.832Z,11.30
2023-04-04T16:48:26.129Z,9.60
2023-04-04T16:51:29.987Z,13.07
2023-04-04T16:54:33.375Z,14.82
2023-04-04T16:57:38.193Z,18.25
2023-04-04T17:00:41.967Z,29.67
2023-04-04T17:03:45.603Z,20.88
2023-04-04T17:06:49.285Z,21.58
2023-04-04T17:09:52.709Z,20.25
2023-04-04T17:12:57.933Z,28.55
2023-04-04T17:16:02.257Z,29.08
2023-04-04T17:19:05.939Z,28.77
2023-04-04T17:22:09.251Z,22.40
2023-04-04T17:25:12.994Z,21.98
2023-04-04T17:28:19.432Z,20.42
2023-04-04T17:31:23.012Z,19.05
2023-04-04T17:34:26.710Z,20.30
2023-04-04T17:37:31.206Z,18.40
2023-04-04T17:40:36.535Z,18.67
2023-04-04T17:43:41.961Z,21.77
2023-04-04T17:46:46.332Z,21.40
2023-04-04T17:49:51.201Z,22.70
2023-04-04T17:52:54.729Z,23.73
2023-04-04T17:55:58.104Z,19.48
2023-04-04T17:59:03.002Z,18.40
2023-04-04T18:02:06.662Z,20.33
2023-04-04T18:05:12.671Z,17.52
2023-04-04T18:08:16.784Z,23.27
2023-04-04T18:11:20.396Z,56.42
2023-04-04T18:14:25.522Z,60.80
2023-04-04T18:17:31.247Z,38.08
2023-04-04T18:20:36.155Z,30.65
2023-04-04T18:23:39.404Z,20.95
2023-04-04T18:26:44.378Z,25.02
2023-04-04T18:29:49.253Z,29.85
2023-04-04T18:32:52.877Z,38.40
2023-04-04T18:35:56.470Z,32.92
2023-04-04T18:39:01.102Z,32.20
2023-04-04T18:42:04.828Z,27.13
2023-04-04T18:45:11.201Z,20.92
2023-04-04T18:48:14.739Z,20.75
2023-04-04T18:51:18.951Z,21.55
2023-04-04T18:54:23.258Z,22.13
2023-04-04T18:57:26.927Z,19.42
2023-04-04T19:00:32.068Z,16.67
2023-04-04T19:03:42.009Z,11.57
2023-04-04T19:06:46.597Z,16.23
2023-04-04T19:09:50.587Z,17.63
2023-04-04T19:12:54.552Z,17.35
2023-04-04T19:15:59.570Z,14.20
2023-04-04T19:19:03.233Z,17.48
2023-04-04T19:22:07.722Z,16.52
2023-04-04T19:25:11.482Z,15.23
2023-04-04T19:28:14.846Z,29.20
2023-04-04T19:31:23.606Z,23.88
2023-04-04T19:34:27.029Z,23.50
2023-04-04T19:37:31.378Z,23.50
2023-04-04T19:40:49.317Z,21.17
2023-04-04T19:43:52.821Z,17.67
2023-04-04T19:46:58.827Z,21.40
2023-04-04T19:50:02.254Z,26.13
2023-04-04T19:53:07.165Z,28.17
2023-04-04T19:56:12.057Z,36.08
2023-04-04T19:59:53.403Z,41.60
2023-04-04T20:03:07.045Z,37.58
2023-04-04T20:06:11.636Z,29.92
2023-04-04T20:09:43.149Z,30.20
2023-04-04T20:12:47.169Z,36.75
2023-04-04T20:16:01.694Z,38.38
2023-04-04T20:19:08.189Z,43.47
2023-04-04T20:22:11.868Z,45.88
2023-04-04T20:25:40.936Z,39.28
2023-04-04T20:28:47.873Z,30.70
2023-04-04T20:31:53.554Z,31.80
2023-04-04T20:34:58.629Z,30.55
2023-04-04T20:38:01.958Z,32.15
2023-04-04T20:41:17.203Z,29.85
2023-04-04T20:44:21.492Z,31.98
2023-04-04T20:47:38.822Z,34.25
2023-04-04T20:50:47.463Z,27.10
2023-04-04T20:53:51.724Z,24.08
2023-04-04T20:56:56.617Z,29.15
2023-04-04T21:00:00.156Z,26.52
2023-04-04T21:03:09.808Z,30.55
2023-04-04T21:06:16.411Z,28.85
2023-04-04T21:09:20.098Z,27.65
2023-04-04T21:12:23.403Z,26.10
2023-04-04T21:15:29.499Z,29.08
2023-04-04T21:18:33.351Z,30.67
2023-04-04T21:21:38.188Z,29.60
2023-04-04T21:24:41.787Z,34.33
2023-04-04T21:27:45.339Z,32.92
2023-04-04T21:30:48.601Z,31.88
2023-04-04T21:33:55.073Z,30.02
2023-04-04T21:37:02.983Z,26.08
2023-04-04T21:40:09.742Z,28.60
2023-04-04T21:43:13.137Z,34.83
2023-04-04T21:46:16.455Z,30.27
2023-04-04T21:49:19.788Z,31.73
2023-04-04T21:52:24.517Z,50.97
2023-04-04T21:55:27.814Z,52.47
2023-04-04T21:58:31.296Z,36.25
2023-04-04T22:01:34.791Z,35.47
2023-04-04T22:04:38.016Z,33.28
2023-04-04T22:07:42.793Z,25.77
2023-04-04T22:10:47.619Z,31.20
2023-04-04T22:13:51.893Z,29.05
2023-04-04T22:16:58.938Z,27.38
2023-04-04T22:20:08.698Z,32.10
2023-04-04T22:23:15.676Z,24.75
2023-04-04T22:26:28.878Z,32.67
2023-04-04T22:29:32.198Z,28.60
2023-04-04T22:32:35.445Z,28.42
2023-04-04T22:35:39.651Z,28.20
2023-04-04T22:38:44.860Z,25.65
2023-04-04T22:41:48.346Z,26.70
2023-04-04T22:44:51.742Z,24.77
2023-04-04T22:47:57.611Z,28.75
2023-04-04T22:51:02.968Z,27.10
2023-04-04T22:54:07.649Z,26.60
2023-04-04T22:57:11.176Z,26.60
2023-04-04T23:00:15.305Z,25.50
2023-04-04T23:03:18.847Z,21.73
2023-04-04T23:06:22.264Z,26.40
2023-04-04T23:09:26.840Z,28.58
2023-04-04T23:12:30.822Z,26.10
2023-04-04T23:15:37.433Z,25.67
2023-04-04T23:18:40.841Z,26.02
2023-04-04T23:21:44.179Z,24.92
2023-04-04T23:24:48.845Z,24.90
2023-04-04T23:27:52.134Z,28.38
2023-04-04T23:30:55.986Z,24.15
2023-04-04T23:34:00.453Z,26.20
2023-04-04T23:37:03.723Z,34.67
2023-04-04T23:40:09.911Z,26.30
2023-04-04T23:43:13.119Z,43.08
2023-04-04T23:46:16.692Z,50.58
2023-04-04T23:49:20.188Z,60.72
2023-04-04T23:52:23.594Z,71.53
2023-04-04T23:55:28.643Z,65.32
2023-04-04T23:58:32.441Z,50.05
